createdAt,value
2023-01-08T00:00:39.882Z,46.16
2023-01-08T00:01:39.845Z,46.83
2023-01-08T00:02:39.840Z,52.01
2023-01-08T00:03:39.870Z,49.77
2023-01-08T00:04:39.710Z,43.63
2023-01-08T00:05:39.660Z,47.72
2023-01-08T00:06:39.692Z,42.98
2023-01-08T00:07:39.566Z,46.32
2023-01-08T00:08:39.534Z,47.17
2023-01-08T00:09:39.480Z,47.08
2023-01-08T00:10:39.430Z,47.81
2023-01-08T00:11:39.396Z,45.70
2023-01-08T00:12:39.347Z,46.26
2023-01-08T00:13:39.314Z,49.59
2023-01-08T00:14:39.281Z,47.07
2023-01-08T00:15:39.266Z,46.75
2023-01-08T00:16:39.237Z,47.68
2023-01-08T00:17:39.160Z,47.80
2023-01-08T00:18:39.122Z,47.98
2023-01-08T00:19:39.083Z,44.89
2023-01-08T00:20:39.038Z,45.42
2023-01-08T00:21:39.003Z,47.81
2023-01-08T00:22:39.064Z,43.90
2023-01-08T00:23:38.916Z,43.29
2023-01-08T00:24:38.876Z,47.84
2023-01-08T00:25:38.843Z,47.84
2023-01-08T00:26:38.802Z,47.29
2023-01-08T00:27:38.770Z,46.90
2023-01-08T00:28:38.723Z,47.36
2023-01-08T00:29:38.697Z,45.70
2023-01-08T00:30:38.680Z,48.28
2023-01-08T00:31:38.617Z,47.12
2023-01-08T00:32:38.577Z,48.92
2023-01-08T00:33:38.535Z,47.78
2023-01-08T00:34:38.502Z,46.03
2023-01-08T00:35:38.456Z,47.12
2023-01-08T00:36:38.437Z,49.19
2023-01-08T00:37:38.383Z,46.35
2023-01-08T00:38:38.480Z,48.53
2023-01-08T00:39:38.316Z,46.16
2023-01-08T00:40:38.269Z,50.10
2023-01-08T00:41:38.238Z,46.49
2023-01-08T00:42:38.205Z,44.76
2023-01-08T00:43:38.163Z,48.91
2023-01-08T00:44:38.121Z,46.64
2023-01-08T00:45:38.121Z,42.31
2023-01-08T00:46:38.035Z,43.12
2023-01-08T00:47:38.005Z,43.39
2023-01-08T00:48:37.956Z,38.72
2023-01-08T00:49:37.920Z,43.71
2023-01-08T00:50:37.886Z,46.42
2023-01-08T00:51:37.842Z,46.74
2023-01-08T00:52:37.801Z,37.06
2023-01-08T00:53:37.760Z,38.34
2023-01-08T00:54:37.814Z,32.61
2023-01-08T00:55:37.687Z,37.29
2023-01-08T00:56:37.642Z,37.46
2023-01-08T00:57:37.606Z,31.88
2023-01-08T00:58:37.567Z,38.17
2023-01-08T00:59:37.545Z,29.45
2023-01-08T01:00:37.510Z,31.16
2023-01-08T01:01:37.628Z,28.68
2023-01-08T01:02:37.416Z,32.13
2023-01-08T01:03:37.386Z,37.26
2023-01-08T01:04:37.401Z,40.19
2023-01-08T01:05:37.335Z,33.59
2023-01-08T01:06:37.277Z,33.09
2023-01-08T01:07:37.244Z,42.17
2023-01-08T01:08:37.191Z,44.40
2023-01-08T01:09:37.151Z,44.09
2023-01-08T01:10:37.204Z,48.83
2023-01-08T01:11:37.072Z,48.86
2023-01-08T01:12:37.024Z,45.46
2023-01-08T01:13:37.006Z,45.79
2023-01-08T01:14:36.961Z,46.10
2023-01-08T01:15:36.910Z,46.00
2023-01-08T01:16:36.960Z,48.48
2023-01-08T01:17:36.824Z,45.07
2023-01-08T01:18:36.792Z,50.32
2023-01-08T01:19:36.759Z,49.39
2023-01-08T01:20:36.735Z,50.87
2023-01-08T01:21:36.668Z,50.54
2023-01-08T01:22:36.640Z,50.92
2023-01-08T01:23:36.591Z,51.54
2023-01-08T01:24:36.551Z,48.36
2023-01-08T01:25:36.525Z,45.18
2023-01-08T01:26:36.575Z,47.96
2023-01-08T01:27:36.443Z,46.59
2023-01-08T01:28:36.412Z,49.70
2023-01-08T01:29:36.369Z,47.51
2023-01-08T01:30:36.355Z,48.34
2023-01-08T01:31:36.301Z,51.30
2023-01-08T01:32:36.257Z,48.04
2023-01-08T01:33:36.231Z,49.30
2023-01-08T01:34:36.185Z,47.87
2023-01-08T01:35:36.152Z,52.78
2023-01-08T01:36:36.116Z,47.48
2023-01-08T01:37:36.097Z,46.93
2023-01-08T01:38:36.053Z,49.04
2023-01-08T01:39:36.013Z,43.75
2023-01-08T01:40:35.974Z,39.32
2023-01-08T01:41:35.939Z,42.67
2023-01-08T01:42:36.001Z,34.86
2023-01-08T01:43:35.873Z,32.72
2023-01-08T01:44:35.821Z,40.59
2023-01-08T01:45:35.800Z,44.71
2023-01-08T01:46:35.755Z,38.34
2023-01-08T01:47:35.729Z,27.75
2023-01-08T01:48:35.688Z,26.36
2023-01-08T01:49:35.657Z,34.10
2023-01-08T01:50:35.620Z,33.26
2023-01-08T01:51:35.571Z,29.10
2023-01-08T01:52:35.531Z,25.87
2023-01-08T01:53:35.509Z,28.40
2023-01-08T01:54:35.469Z,29.29
2023-01-08T01:55:35.432Z,32.39
2023-01-08T01:56:35.386Z,39.23
2023-01-08T01:57:35.351Z,29.28
2023-01-08T01:58:35.405Z,29.01
2023-01-08T01:59:35.277Z,29.14
2023-01-08T02:00:35.251Z,32.28
2023-01-08T02:01:35.398Z,46.41
2023-01-08T02:02:35.173Z,42.02
2023-01-08T02:03:35.260Z,43.09
2023-01-08T02:04:35.113Z,34.83
2023-01-08T02:05:35.068Z,36.51
2023-01-08T02:06:35.029Z,31.29
2023-01-08T02:07:34.977Z,27.64
2023-01-08T02:08:34.955Z,26.31
2023-01-08T02:09:34.921Z,28.17
2023-01-08T02:10:34.867Z,33.88
2023-01-08T02:11:34.834Z,32.88
2023-01-08T02:12:34.806Z,32.98
2023-01-08T02:13:34.767Z,27.20
2023-01-08T02:14:34.799Z,25.00
2023-01-08T02:15:34.670Z,34.82
2023-01-08T02:16:34.693Z,37.86
2023-01-08T02:17:34.597Z,26.93
2023-01-08T02:18:34.551Z,27.96
2023-01-08T02:19:34.516Z,27.39
2023-01-08T02:20:34.476Z,31.16
2023-01-08T02:21:34.441Z,34.97
2023-01-08T02:22:34.404Z,40.52
2023-01-08T02:23:34.373Z,29.13
2023-01-08T02:24:34.342Z,25.08
2023-01-08T02:25:34.308Z,30.22
2023-01-08T02:26:34.281Z,33.38
2023-01-08T02:27:34.241Z,38.96
2023-01-08T02:28:34.211Z,37.50
2023-01-08T02:29:34.177Z,33.55
2023-01-08T02:30:34.275Z,25.65
2023-01-08T02:31:34.099Z,31.53
2023-01-08T02:32:34.050Z,37.10
2023-01-08T02:33:34.030Z,42.06
2023-01-08T02:34:33.982Z,27.74
2023-01-08T02:35:33.939Z,29.08
2023-01-08T02:36:33.901Z,25.00
2023-01-08T02:37:33.868Z,27.82
2023-01-08T02:38:33.826Z,33.02
2023-01-08T02:39:33.804Z,35.74
2023-01-08T02:40:33.756Z,32.45
2023-01-08T02:41:33.720Z,28.74
2023-01-08T02:42:33.670Z,30.61
2023-01-08T02:43:33.634Z,27.81
2023-01-08T02:44:33.603Z,34.83
2023-01-08T02:45:33.565Z,33.76
2023-01-08T02:46:33.527Z,31.38
2023-01-08T02:47:33.502Z,25.00
2023-01-08T02:48:33.461Z,32.09
2023-01-08T02:49:33.427Z,37.19
2023-01-08T02:50:33.382Z,42.59
2023-01-08T02:51:33.349Z,42.73
2023-01-08T02:52:33.332Z,41.00
2023-01-08T02:53:33.286Z,34.81
2023-01-08T02:54:33.256Z,33.77
2023-01-08T02:55:33.205Z,43.06
2023-01-08T02:56:33.166Z,42.35
2023-01-08T02:57:33.132Z,31.49
2023-01-08T02:58:33.095Z,34.05
2023-01-08T02:59:33.056Z,35.27
2023-01-08T03:00:33.011Z,26.66
2023-01-08T03:01:33.086Z,43.55
2023-01-08T03:02:33.149Z,44.43
2023-01-08T07:25:25.959Z,45.59
2023-01-08T07:26:24.403Z,50.27
2023-01-08T07:27:24.370Z,48.65
2023-01-08T07:28:24.333Z,44.96
2023-01-08T07:29:24.304Z,39.45
2023-01-08T07:30:29.842Z,31.66
2023-01-08T07:31:25.262Z,31.97
2023-01-08T07:32:24.199Z,33.68
2023-01-08T07:33:24.165Z,39.15
2023-01-08T07:34:24.236Z,38.77
2023-01-08T07:36:24.066Z,41.17
2023-01-08T07:37:24.030Z,40.99
2023-01-08T07:38:24.003Z,49.50
2023-01-08T07:39:23.973Z,43.04
2023-01-08T07:40:23.953Z,41.84
2023-01-08T07:41:23.911Z,43.88
2023-01-08T07:42:23.871Z,46.17
2023-01-08T07:43:23.842Z,41.24
2023-01-08T07:44:23.812Z,48.92
2023-01-08T07:45:23.775Z,48.47
2023-01-08T07:46:23.750Z,42.70
2023-01-08T07:47:23.696Z,39.29
2023-01-08T07:48:23.667Z,44.21
2023-01-08T07:49:23.632Z,51.91
2023-01-08T07:50:23.690Z,48.66
2023-01-08T07:51:23.569Z,45.47
2023-01-08T07:52:23.530Z,44.26
2023-01-08T07:53:23.494Z,39.05
2023-01-08T07:54:23.475Z,45.19
2023-01-08T07:55:23.435Z,53.72
2023-01-08T07:56:23.401Z,46.81
2023-01-08T07:57:23.365Z,42.11
2023-01-08T07:58:23.336Z,39.06
2023-01-08T07:59:23.300Z,37.78
2023-01-08T08:00:23.269Z,48.08
2023-01-08T08:01:23.381Z,46.10
2023-01-08T08:02:23.418Z,43.58
2023-01-08T08:03:23.206Z,34.28
2023-01-08T08:04:23.135Z,34.50
2023-01-08T08:05:23.125Z,40.31
2023-01-08T08:06:23.166Z,49.54
2023-01-08T08:07:23.055Z,42.37
2023-01-08T08:08:23.016Z,42.40
2023-01-08T08:09:22.994Z,39.17
2023-01-08T08:10:22.961Z,35.59
2023-01-08T08:11:22.934Z,41.81
2023-01-08T09:12:21.110Z,45.93
2023-01-08T09:13:21.095Z,47.47
2023-01-08T09:14:21.048Z,38.81
2023-01-08T09:15:21.021Z,45.50
2023-01-08T09:16:21.036Z,51.00
2023-01-08T09:17:20.957Z,56.79
2023-01-08T09:18:20.929Z,48.31
2023-01-08T09:19:20.909Z,40.16
2023-01-08T09:20:20.869Z,43.83
2023-01-08T09:21:20.837Z,43.89
2023-01-08T09:22:20.836Z,44.76
2023-01-08T09:23:20.778Z,44.84
2023-01-08T09:24:20.752Z,42.00
2023-01-08T09:25:20.722Z,41.83
2023-01-08T09:26:20.779Z,39.75
2023-01-08T09:27:20.666Z,50.74
2023-01-08T09:28:20.625Z,50.60
2023-01-08T09:29:20.611Z,43.72
2023-01-08T09:30:20.578Z,36.91
2023-01-08T09:31:20.603Z,42.42
2023-01-08T09:32:20.527Z,48.16
2023-01-08T09:33:20.482Z,51.59
2023-01-08T09:34:20.459Z,42.06
2023-01-08T09:35:20.432Z,36.18
2023-01-08T09:36:20.399Z,46.35
2023-01-08T09:37:20.358Z,41.99
2023-01-08T09:38:20.334Z,51.46
2023-01-08T09:39:20.307Z,46.85
2023-01-08T09:40:20.273Z,43.78
2023-01-08T09:41:20.242Z,46.02
2023-01-08T09:42:20.313Z,40.46
2023-01-08T09:43:20.175Z,43.98
2023-01-08T09:44:20.144Z,55.92
2023-01-08T09:45:20.118Z,51.32
2023-01-08T09:46:20.156Z,52.91
2023-01-08T09:47:20.048Z,55.58
2023-01-08T09:48:20.025Z,50.16
2023-01-08T09:49:19.981Z,48.08
2023-01-08T09:50:19.953Z,43.49
2023-01-08T09:51:19.920Z,45.67
2023-01-08T09:52:19.892Z,44.81
2023-01-08T09:53:19.858Z,44.64
2023-01-08T09:54:19.828Z,51.38
2023-01-08T09:55:19.791Z,40.04
2023-01-08T09:56:19.770Z,42.43
2023-01-08T09:57:19.744Z,42.62
2023-01-08T09:58:19.804Z,32.41
2023-01-08T09:59:19.683Z,42.59
2023-01-08T10:00:19.651Z,37.10
2023-01-08T10:01:19.757Z,37.54
2023-01-08T10:02:19.722Z,34.31
2023-01-08T10:03:19.577Z,34.67
2023-01-08T10:04:19.532Z,33.06
2023-01-08T10:05:19.491Z,45.61
2023-01-08T10:06:19.461Z,36.90
2023-01-08T10:07:19.441Z,37.81
2023-01-08T10:08:19.407Z,25.43
2023-01-08T10:09:19.379Z,29.92
2023-01-08T10:10:19.354Z,39.93
2023-01-08T10:11:19.320Z,39.47
2023-01-08T10:12:19.289Z,25.00
2023-01-08T10:13:19.267Z,25.88
2023-01-08T10:14:19.334Z,26.07
2023-01-08T10:15:19.195Z,28.18
2023-01-08T10:16:19.187Z,32.74
2023-01-08T10:17:19.145Z,32.27
2023-01-08T10:18:19.136Z,34.72
2023-01-08T10:19:19.101Z,30.44
2023-01-08T10:20:19.064Z,30.77
2023-01-08T10:21:19.039Z,32.61
2023-01-08T10:22:19.013Z,34.24
2023-01-08T10:23:18.977Z,33.56
2023-01-08T10:24:18.971Z,33.10
2023-01-08T10:25:18.935Z,31.08
2023-01-08T10:26:18.904Z,42.30
2023-01-08T10:27:18.867Z,42.86
2023-01-08T10:28:18.831Z,32.10
2023-01-08T10:29:18.810Z,35.44
2023-01-08T10:30:18.774Z,34.64
2023-01-08T10:31:18.756Z,34.85
2023-01-08T10:32:18.705Z,43.33
2023-01-08T10:33:18.677Z,35.11
2023-01-08T10:34:18.658Z,29.36
2023-01-08T10:35:18.656Z,35.67
2023-01-08T10:36:18.602Z,37.06
2023-01-08T10:37:18.566Z,38.65
2023-01-08T10:38:18.521Z,44.27
2023-01-08T10:39:18.489Z,44.54
2023-01-08T10:40:18.452Z,30.81
2023-01-08T10:41:18.465Z,37.06
2023-01-08T10:42:18.396Z,40.30
2023-01-08T10:43:18.380Z,39.69
2023-01-08T10:44:18.337Z,47.46
2023-01-08T10:45:18.304Z,43.69
2023-01-08T10:46:18.365Z,36.52
2023-01-08T10:47:18.244Z,36.17
2023-01-08T10:48:18.227Z,33.17
2023-01-08T10:49:18.202Z,44.45
2023-01-08T10:50:18.154Z,41.03
2023-01-08T10:51:18.124Z,39.57
2023-01-08T10:52:18.074Z,38.08
2023-01-08T10:53:18.045Z,40.32
2023-01-08T10:54:18.017Z,39.52
2023-01-08T10:55:17.990Z,44.71
2023-01-08T10:56:17.960Z,39.98
2023-01-08T10:57:17.922Z,38.78
2023-01-08T10:58:17.900Z,40.90
2023-01-08T10:59:17.856Z,39.71
2023-01-08T11:00:17.810Z,49.39
2023-01-08T11:01:17.840Z,38.86
2023-01-08T11:02:17.776Z,38.87
2023-01-08T11:03:17.731Z,33.50
2023-01-08T11:04:17.698Z,34.41
2023-01-08T11:05:17.662Z,46.35
2023-01-08T11:06:17.627Z,46.06
2023-01-08T11:07:17.598Z,44.89
2023-01-08T11:08:17.561Z,41.88
2023-01-08T11:09:17.539Z,37.54
2023-01-08T11:10:17.505Z,42.97
2023-01-08T11:11:17.453Z,50.26
2023-01-08T11:12:17.416Z,38.73
2023-01-08T11:13:17.393Z,36.07
2023-01-08T11:14:17.355Z,39.73
2023-01-08T11:15:17.313Z,40.06
2023-01-08T11:16:17.322Z,41.04
2023-01-08T11:17:17.254Z,41.34
2023-01-08T11:18:17.223Z,42.16
2023-01-08T11:19:17.728Z,34.74
2023-01-08T11:20:17.159Z,42.29
2023-01-08T11:21:17.126Z,48.07
2023-01-08T11:22:17.092Z,43.66
2023-01-08T11:23:17.059Z,43.16
2023-01-08T11:24:17.037Z,37.71
2023-01-08T11:25:17.015Z,35.78
2023-01-08T11:26:16.997Z,35.66
2023-01-08T11:27:16.958Z,48.46
2023-01-08T11:28:16.929Z,42.83
2023-01-08T11:29:16.892Z,40.85
2023-01-08T11:30:16.867Z,40.87
2023-01-08T11:31:16.881Z,41.12
2023-01-08T11:32:16.803Z,43.69
2023-01-08T11:33:16.773Z,43.10
2023-01-08T11:34:16.740Z,44.61
2023-01-08T11:35:16.709Z,42.75
2023-01-08T11:36:16.682Z,41.65
2023-01-08T11:37:16.641Z,41.54
2023-01-08T11:38:16.609Z,41.90
2023-01-08T11:39:16.579Z,42.04
2023-01-08T11:40:16.531Z,36.85
2023-01-08T11:41:16.501Z,41.56
2023-01-08T11:42:16.465Z,44.15
2023-01-08T11:43:16.428Z,52.01
2023-01-08T11:44:16.388Z,48.08
2023-01-08T11:45:16.364Z,42.69
2023-01-08T11:46:16.324Z,38.27
2023-01-08T11:47:16.292Z,41.85
2023-01-08T11:48:16.265Z,48.78
2023-01-08T11:49:16.232Z,49.10
2023-01-08T11:50:16.195Z,42.79
2023-01-08T11:51:16.152Z,40.42
2023-01-08T11:52:16.113Z,41.64
2023-01-08T11:53:16.084Z,50.02
2023-01-08T11:54:16.029Z,45.56
2023-01-08T11:55:16.005Z,48.89
2023-01-08T11:56:15.977Z,45.58
2023-01-08T11:57:15.936Z,39.28
2023-01-08T11:58:15.902Z,47.62
2023-01-08T11:59:15.849Z,51.56
2023-01-08T12:00:15.825Z,44.14
2023-01-08T12:01:15.806Z,42.09
2023-01-08T12:02:15.771Z,44.71
2023-01-08T12:03:15.703Z,45.40
2023-01-08T12:04:15.649Z,53.50
2023-01-08T12:05:15.614Z,48.66
2023-01-08T12:06:15.563Z,47.21
2023-01-08T12:07:15.520Z,40.47
2023-01-08T12:08:15.483Z,40.55
2023-01-08T12:09:15.445Z,41.95
2023-01-08T12:10:15.421Z,44.54
2023-01-08T12:11:15.399Z,44.24
2023-01-08T12:12:15.354Z,44.42
2023-01-08T12:13:15.320Z,41.44
2023-01-08T12:14:15.294Z,41.38
2023-01-08T12:15:15.256Z,52.23
2023-01-08T12:16:15.294Z,47.52
2023-01-08T12:17:15.194Z,43.43
2023-01-08T12:18:15.155Z,43.61
2023-01-08T12:19:15.122Z,41.56
2023-01-08T12:20:15.077Z,42.03
2023-01-08T12:21:15.038Z,42.92
2023-01-08T12:22:15.001Z,43.34
2023-01-08T12:23:14.952Z,40.38
2023-01-08T12:24:14.937Z,36.33
2023-01-08T12:25:14.885Z,34.37
2023-01-08T12:26:14.869Z,47.31
2023-01-08T12:27:14.836Z,38.70
2023-01-08T12:28:14.790Z,42.06
2023-01-08T12:29:14.747Z,35.28
2023-01-08T12:30:14.723Z,25.00
2023-01-08T12:31:14.716Z,43.65
2023-01-08T12:32:14.724Z,42.54
2023-01-08T12:33:14.607Z,39.03
2023-01-08T12:34:14.577Z,34.28
2023-01-08T12:35:14.549Z,32.11
2023-01-08T12:36:14.519Z,38.83
2023-01-08T12:37:14.474Z,44.70
2023-01-08T12:38:14.438Z,43.44
2023-01-08T12:39:14.399Z,32.75
2023-01-08T12:40:14.367Z,38.02
2023-01-08T12:41:14.342Z,35.88
2023-01-08T12:42:14.285Z,45.21
2023-01-08T12:43:14.247Z,38.53
2023-01-08T12:44:14.226Z,36.31
2023-01-08T12:45:14.179Z,35.38
2023-01-08T12:46:14.179Z,37.00
2023-01-08T12:47:14.108Z,39.43
2023-01-08T12:48:14.100Z,39.24
2023-01-08T12:49:14.048Z,34.90
2023-01-08T12:50:14.007Z,36.33
2023-01-08T12:51:13.950Z,30.28
2023-01-08T12:52:13.915Z,32.61
2023-01-08T12:53:13.904Z,43.71
2023-01-08T12:54:13.869Z,36.85
2023-01-08T12:55:13.812Z,31.63
2023-01-08T12:56:13.793Z,31.57
2023-01-08T12:57:13.752Z,34.45
2023-01-08T12:58:13.708Z,41.97
2023-01-08T12:59:13.678Z,35.63
2023-01-08T13:00:13.649Z,35.69
2023-01-08T13:01:13.731Z,35.78
2023-01-08T13:02:13.676Z,34.48
2023-01-08T13:03:13.552Z,35.94
2023-01-08T13:04:13.534Z,37.19
2023-01-08T13:05:13.504Z,40.50
2023-01-08T13:06:13.474Z,36.28
2023-01-08T13:07:13.428Z,37.27
2023-01-08T13:08:13.403Z,36.56
2023-01-08T13:09:13.367Z,39.69
2023-01-08T13:10:13.342Z,39.93
2023-01-08T13:11:13.293Z,33.76
2023-01-08T13:12:13.251Z,34.46
2023-01-08T13:13:13.210Z,40.18
2023-01-08T13:14:13.178Z,46.79
2023-01-08T13:15:13.155Z,46.79
2023-01-08T13:16:13.134Z,44.10
2023-01-08T13:17:13.077Z,39.61
2023-01-08T13:18:13.059Z,34.90
2023-01-08T13:19:13.008Z,42.35
2023-01-08T13:20:12.968Z,48.77
2023-01-08T13:21:12.938Z,48.32
2023-01-08T13:22:12.897Z,37.98
2023-01-08T13:23:12.859Z,34.50
2023-01-08T13:24:12.825Z,33.12
2023-01-08T13:25:12.791Z,40.01
2023-01-08T13:26:12.854Z,46.06
2023-01-08T13:27:12.737Z,39.11
2023-01-08T13:28:12.707Z,34.28
2023-01-08T13:29:12.675Z,34.25
2023-01-08T13:30:12.654Z,39.91
2023-01-08T13:31:12.607Z,44.83
2023-01-08T13:32:12.584Z,48.80
2023-01-08T13:33:12.565Z,48.99
2023-01-08T13:34:12.541Z,34.22
2023-01-08T13:35:12.504Z,38.53
2023-01-08T13:36:12.444Z,42.24
2023-01-08T13:37:26.923Z,51.40
2023-01-08T13:38:13.400Z,51.45
2023-01-08T13:39:12.364Z,40.83
2023-01-08T13:40:12.341Z,43.64
2023-01-08T13:41:12.295Z,43.89
2023-01-08T13:42:12.263Z,51.70
2023-01-08T13:43:12.251Z,43.69
2023-01-08T13:44:12.210Z,46.53
2023-01-08T13:45:12.180Z,39.22
2023-01-08T13:46:12.177Z,42.33
2023-01-08T13:47:12.126Z,55.41
2023-01-08T13:48:12.081Z,50.81
2023-01-08T13:49:12.049Z,48.23
2023-01-08T13:50:12.024Z,49.49
2023-01-08T13:51:11.989Z,48.71
2023-01-08T13:52:11.960Z,44.33
2023-01-08T13:53:11.931Z,50.55
2023-01-08T13:54:11.925Z,53.84
2023-01-08T13:55:11.878Z,51.59
2023-01-08T13:56:11.844Z,49.78
2023-01-08T13:57:11.809Z,55.22
2023-01-08T13:58:11.786Z,58.40
2023-01-08T13:59:11.751Z,57.79
2023-01-08T14:00:11.726Z,61.06
2023-01-08T14:01:11.774Z,60.13
2023-01-08T14:02:11.722Z,59.21
2023-01-08T14:03:11.629Z,57.71
2023-01-08T14:04:11.596Z,63.46
2023-01-08T14:05:11.566Z,62.29
2023-01-08T14:06:11.557Z,57.48
2023-01-08T14:07:11.517Z,58.44
2023-01-08T14:08:11.476Z,59.54
2023-01-08T14:09:11.449Z,57.81
2023-01-08T14:10:11.481Z,55.74
2023-01-08T14:11:11.387Z,54.99
2023-01-08T14:12:11.347Z,56.72
2023-01-08T14:13:11.316Z,64.31
2023-01-08T14:14:11.280Z,61.58
2023-01-08T14:15:11.259Z,63.11
2023-01-08T14:16:11.274Z,59.70
2023-01-08T14:17:11.183Z,58.97
2023-01-08T14:18:11.152Z,65.10
2023-01-08T14:19:11.116Z,69.29
2023-01-08T14:20:11.085Z,71.98
2023-01-08T14:21:11.046Z,73.79
2023-01-08T14:22:11.017Z,69.87
2023-01-08T14:23:10.998Z,70.34
2023-01-08T14:24:10.956Z,69.00
2023-01-08T14:25:12.365Z,70.76
2023-01-08T14:26:10.898Z,74.58
2023-01-08T14:27:10.854Z,70.49
2023-01-08T14:28:10.823Z,70.20
2023-01-08T14:29:10.788Z,74.17
2023-01-08T14:30:10.752Z,74.54
2023-01-08T14:31:10.715Z,76.31
2023-01-08T14:32:10.687Z,76.03
2023-01-08T14:33:10.657Z,77.07
2023-01-08T14:34:10.641Z,75.22
2023-01-08T14:35:10.588Z,77.51
2023-01-08T14:36:10.557Z,78.00
2023-01-08T14:37:10.515Z,78.19
2023-01-08T14:38:10.486Z,77.89
2023-01-08T14:39:10.457Z,77.73
2023-01-08T14:40:10.415Z,76.45
2023-01-08T14:41:10.380Z,74.92
2023-01-08T14:42:10.339Z,81.13
2023-01-08T14:43:10.312Z,72.85
2023-01-08T14:44:10.282Z,76.30
2023-01-08T14:45:10.231Z,75.73
2023-01-08T14:46:10.276Z,78.75
2023-01-08T14:47:10.163Z,75.55
2023-01-08T14:48:10.122Z,77.58
2023-01-08T14:49:10.091Z,78.90
2023-01-08T14:50:10.060Z,78.34
2023-01-08T14:51:10.023Z,82.52
2023-01-08T14:52:09.991Z,79.70
2023-01-08T14:53:09.951Z,84.79
2023-01-08T14:54:09.927Z,84.96
2023-01-08T14:55:09.895Z,86.43
2023-01-08T14:56:09.857Z,84.47
2023-01-08T14:57:09.816Z,83.00
2023-01-08T14:58:09.797Z,80.51
2023-01-08T14:59:09.768Z,82.26
2023-01-08T15:00:09.734Z,81.97
2023-01-08T15:01:09.860Z,88.24
2023-01-08T15:02:09.881Z,82.51
2023-01-08T15:03:09.616Z,84.45
2023-01-08T15:04:09.585Z,86.33
2023-01-08T15:05:09.537Z,83.11
2023-01-08T15:06:09.506Z,81.25
2023-01-08T15:07:09.463Z,87.68
2023-01-08T15:08:09.434Z,90.02
2023-01-08T15:09:10.298Z,82.65
2023-01-08T15:10:09.364Z,83.86
2023-01-08T15:11:09.336Z,84.46
2023-01-08T15:12:09.294Z,88.22
2023-01-08T15:13:09.261Z,88.48
2023-01-08T15:14:09.228Z,87.87
2023-01-08T15:15:09.212Z,89.75
2023-01-08T15:16:09.192Z,88.76
2023-01-08T15:17:09.124Z,89.47
2023-01-08T15:18:09.082Z,88.92
2023-01-08T15:19:09.041Z,88.87
2023-01-08T15:20:09.015Z,90.99
2023-01-08T15:21:09.182Z,92.14
2023-01-08T15:22:08.949Z,84.74
2023-01-08T15:23:08.897Z,87.71
2023-01-08T15:24:08.870Z,93.34
2023-01-08T15:25:08.842Z,88.72
2023-01-08T15:26:08.801Z,90.93
2023-01-08T15:27:08.757Z,90.67
2023-01-08T15:28:08.736Z,93.99
2023-01-08T15:29:08.694Z,91.00
2023-01-08T15:30:08.677Z,91.01
2023-01-08T15:31:08.623Z,87.80
2023-01-08T15:32:08.585Z,91.92
2023-01-08T15:33:08.555Z,92.79
2023-01-08T15:34:08.525Z,93.34
2023-01-08T15:35:08.498Z,93.04
2023-01-08T15:36:08.472Z,90.51
2023-01-08T15:37:08.422Z,88.93
2023-01-08T15:38:08.388Z,94.36
2023-01-08T15:39:08.355Z,91.68
2023-01-08T15:40:08.323Z,89.81
2023-01-08T15:41:08.279Z,94.95
2023-01-08T15:42:08.245Z,93.73
2023-01-08T15:43:08.208Z,92.72
2023-01-08T15:44:08.184Z,92.13
2023-01-08T15:45:08.137Z,91.75
2023-01-08T15:46:08.132Z,91.95
2023-01-08T15:47:08.082Z,86.59
2023-01-08T15:48:08.050Z,90.32
2023-01-08T15:49:08.036Z,91.40
2023-01-08T15:50:08.046Z,89.18
2023-01-08T15:51:07.946Z,88.53
2023-01-08T15:52:07.908Z,86.79
2023-01-08T15:53:07.873Z,85.57
2023-01-08T15:54:07.841Z,89.44
2023-01-08T15:55:07.816Z,89.13
2023-01-08T15:56:07.779Z,93.44
2023-01-08T15:57:07.731Z,93.73
2023-01-08T15:58:07.689Z,93.62
2023-01-08T15:59:07.655Z,93.29
2023-01-08T16:00:07.612Z,92.62
2023-01-08T16:01:07.616Z,90.91
2023-01-08T16:02:07.649Z,90.51
2023-01-08T16:03:07.502Z,93.52
2023-01-08T16:04:07.490Z,91.70
2023-01-08T16:05:07.439Z,93.03
2023-01-08T16:06:07.448Z,94.13
2023-01-08T16:07:07.354Z,94.29
2023-01-08T16:08:07.320Z,91.95
2023-01-08T16:09:07.283Z,97.14
2023-01-08T16:10:07.243Z,95.82
2023-01-08T16:11:07.211Z,96.20
2023-01-08T16:12:07.188Z,91.20
2023-01-08T16:13:07.138Z,94.29
2023-01-08T16:14:07.084Z,91.26
2023-01-08T16:15:07.056Z,91.90
2023-01-08T16:16:07.034Z,97.10
2023-01-08T16:17:06.986Z,98.25
2023-01-08T16:18:06.956Z,94.40
2023-01-08T16:19:06.913Z,95.49
2023-01-08T16:20:06.881Z,95.10
2023-01-08T16:21:06.844Z,97.88
2023-01-08T16:22:06.804Z,96.90
2023-01-08T16:23:06.763Z,93.73
2023-01-08T16:24:06.724Z,98.10
2023-01-08T16:25:06.684Z,98.10
2023-01-08T16:26:06.656Z,95.83
2023-01-08T16:27:06.606Z,91.65
2023-01-08T16:28:06.610Z,96.79
2023-01-08T16:29:06.530Z,95.63
2023-01-08T16:30:06.502Z,98.88
2023-01-08T16:31:06.478Z,94.91
2023-01-08T16:32:06.435Z,98.39
2023-01-08T16:33:06.402Z,94.60
2023-01-08T16:34:06.363Z,90.29
2023-01-08T16:35:06.313Z,88.67
2023-01-08T16:36:06.280Z,83.88
2023-01-08T16:37:06.237Z,90.06
2023-01-08T16:38:06.208Z,90.04
2023-01-08T16:39:06.169Z,91.37
2023-01-08T16:40:06.139Z,82.68
2023-01-08T16:41:06.107Z,77.57
2023-01-08T16:42:06.063Z,84.97
2023-01-08T16:43:06.029Z,84.29
2023-01-08T16:44:05.983Z,88.21
2023-01-08T16:45:05.965Z,81.22
2023-01-08T16:46:06.024Z,78.70
2023-01-08T16:47:05.911Z,72.89
2023-01-08T16:48:05.859Z,75.01
2023-01-08T16:49:05.830Z,87.76
2023-01-08T16:50:05.807Z,80.62
2023-01-08T16:51:05.778Z,76.39
2023-01-08T16:52:05.740Z,71.64
2023-01-08T16:53:05.712Z,77.59
2023-01-08T16:54:05.693Z,70.72
2023-01-08T16:55:05.653Z,82.62
2023-01-08T16:56:05.629Z,71.38
2023-01-08T16:57:05.612Z,66.32
2023-01-08T16:58:05.561Z,67.59
2023-01-08T16:59:14.908Z,68.06
2023-01-08T17:00:06.516Z,68.61
2023-01-08T17:01:05.527Z,68.48
2023-01-08T17:02:05.449Z,68.48
2023-01-08T17:03:05.411Z,67.67
2023-01-08T17:04:05.467Z,69.15
2023-01-08T17:05:05.353Z,73.21
2023-01-08T17:06:05.304Z,73.56
2023-01-08T17:07:05.275Z,66.72
2023-01-08T17:08:05.229Z,64.18
2023-01-08T17:09:05.208Z,67.70
2023-01-08T17:10:05.158Z,68.84
2023-01-08T17:11:05.128Z,69.76
2023-01-08T17:12:05.101Z,66.67
2023-01-08T17:13:05.063Z,61.94
2023-01-08T17:14:05.026Z,61.71
2023-01-08T17:15:04.992Z,60.72
2023-01-08T17:16:05.000Z,70.86
2023-01-08T17:17:04.945Z,64.16
2023-01-08T17:18:04.901Z,57.68
2023-01-08T17:19:04.879Z,62.92
2023-01-08T17:20:04.830Z,63.30
2023-01-08T17:21:04.806Z,68.36
2023-01-08T17:22:04.766Z,66.71
2023-01-08T17:23:04.745Z,63.82
2023-01-08T17:24:04.704Z,55.55
2023-01-08T17:25:04.679Z,58.83
2023-01-08T17:26:04.656Z,61.67
2023-01-08T17:27:04.612Z,67.57
2023-01-08T17:28:04.573Z,68.47
2023-01-08T17:29:04.548Z,58.65
2023-01-08T17:30:04.519Z,61.43
2023-01-08T17:31:04.615Z,65.67
2023-01-08T17:32:04.446Z,66.13
2023-01-08T17:33:04.422Z,66.12
2023-01-08T17:34:04.399Z,64.04
2023-01-08T17:35:04.352Z,60.14
2023-01-08T17:36:04.317Z,65.00
2023-01-08T17:37:04.292Z,69.34
2023-01-08T17:38:04.263Z,61.26
2023-01-08T17:39:04.236Z,60.01
2023-01-08T17:40:04.228Z,60.07
2023-01-08T17:41:04.177Z,60.57
2023-01-08T17:42:04.134Z,62.44
2023-01-08T17:43:04.112Z,66.50
2023-01-08T17:44:04.073Z,61.04
2023-01-08T17:45:04.055Z,59.97
2023-01-08T17:46:04.049Z,60.31
2023-01-08T17:47:03.981Z,62.74
2023-01-08T17:48:03.948Z,64.42
2023-01-08T17:49:03.924Z,66.71
2023-01-08T17:50:03.885Z,61.06
2023-01-08T17:51:03.858Z,72.57
2023-01-08T17:52:03.823Z,67.20
2023-01-08T17:53:03.808Z,68.98
2023-01-08T17:54:03.762Z,75.24
2023-01-08T17:55:03.715Z,69.88
2023-01-08T17:56:03.694Z,70.58
2023-01-08T17:57:03.655Z,73.27
2023-01-08T17:58:03.615Z,74.19
2023-01-08T17:59:03.577Z,73.59
2023-01-08T18:00:03.536Z,73.76
2023-01-08T18:01:03.560Z,76.08
2023-01-08T18:02:03.627Z,74.46
2023-01-08T18:03:03.445Z,73.09
2023-01-08T18:04:03.393Z,76.93
2023-01-08T18:05:03.365Z,80.63
2023-01-08T18:06:03.330Z,69.82
2023-01-08T18:07:03.297Z,81.47
2023-01-08T18:08:03.270Z,83.19
2023-01-08T18:09:03.228Z,82.86
2023-01-08T18:10:03.191Z,78.45
2023-01-08T18:11:03.163Z,82.26
2023-01-08T18:12:03.136Z,82.02
2023-01-08T18:13:03.106Z,81.65
2023-01-08T18:14:03.083Z,84.95
2023-01-08T18:15:03.040Z,82.60